LIMP/PMF METAR and TAF weather

Enter ICAO airport designator
Station Type Date Time Source
LIMP METAR 2021/03/04 21:50 UTC NOAA

LIMP 042150Z 24003KT 6000 NSC 07/02 Q1018


Station Type Date Time Source
LIMP Decoded METAR 2021/03/04 21:50 UTC NOAA

Parma, Italy (LIMP) 44-49-17N 010-17-41E
Mar 04, 2021 - 04:50 PM EST / 2021.03.04 2150 UTC
Wind: from the WSW (240 degrees) at 3 MPH (3 KT):0
Visibility: 3 mile(s):0
Temperature: 44 F (7 C)
Dew Point: 35 F (2 C)
Relative Humidity: 70%
Pressure (altimeter): 30.06 in. Hg (1018 hPa)
ob: LIMP 042150Z 24003KT 6000 NSC 07/02 Q1018
cycle: 22

Station Type Date Time Source
LIMP TAF 2021/03/04 18:21 UTC NOAA

TAF LIMP 041700Z 0418/0518 VRB04KT 8000 NSC
TEMPO 0500/0507 3000 BR

Example: see airport list